sensor_id;sensor_type;location;lat;lon;timestamp;P1;durP1;ratioP1;P2;durP2;ratioP2
32319;SDS011;19080;51.750;5.888;2022-12-29T00:02:24;1.65;;;1.55;;
32319;SDS011;19080;51.750;5.888;2022-12-29T00:04:51;2.28;;;2.00;;
32319;SDS011;19080;51.750;5.888;2022-12-29T00:07:18;3.67;;;1.92;;
32319;SDS011;19080;51.750;5.888;2022-12-29T00:09:45;1.95;;;1.75;;
32319;SDS011;19080;51.750;5.888;2022-12-29T00:12:12;2.40;;;1.85;;
32319;SDS011;19080;51.750;5.888;2022-12-29T00:14:39;2.63;;;1.92;;
32319;SDS011;19080;51.750;5.888;2022-12-29T00:17:24;1.90;;;1.80;;
32319;SDS011;19080;51.750;5.888;2022-12-29T00:19:50;1.90;;;1.80;;
32319;SDS011;19080;51.750;5.888;2022-12-29T00:22:35;3.38;;;2.25;;
32319;SDS011;19080;51.750;5.888;2022-12-29T00:25:20;3.20;;;1.85;;
32319;SDS011;19080;51.750;5.888;2022-12-29T00:28:08;2.97;;;1.88;;
32319;SDS011;19080;51.750;5.888;2022-12-29T00:30:54;4.00;;;1.27;;
32319;SDS011;19080;51.750;5.888;2022-12-29T00:33:43;1.40;;;1.30;;
32319;SDS011;19080;51.750;5.888;2022-12-29T00:36:30;2.03;;;1.58;;
32319;SDS011;19080;51.750;5.888;2022-12-29T00:39:02;6.60;;;1.33;;
32319;SDS011;19080;51.750;5.888;2022-12-29T00:41:51;1.67;;;0.90;;
32319;SDS011;19080;51.750;5.888;2022-12-29T00:44:36;0.60;;;0.60;;
32319;SDS011;19080;51.750;5.888;2022-12-29T00:47:03;1.20;;;0.77;;
32319;SDS011;19080;51.750;5.888;2022-12-29T00:49:31;1.33;;;0.50;;
32319;SDS011;19080;51.750;5.888;2022-12-29T00:52:06;2.13;;;0.60;;
32319;SDS011;19080;51.750;5.888;2022-12-29T00:54:35;3.65;;;0.93;;
32319;SDS011;19080;51.750;5.888;2022-12-29T00:57:04;0.82;;;0.50;;
32319;SDS011;19080;51.750;5.888;2022-12-29T00:59:34;1.63;;;0.68;;
32319;SDS011;19080;51.750;5.888;2022-12-29T01:02:01;2.97;;;0.70;;
32319;SDS011;19080;51.750;5.888;2022-12-29T01:04:29;2.58;;;0.90;;
32319;SDS011;19080;51.750;5.888;2022-12-29T01:06:55;0.60;;;0.50;;
32319;SDS011;19080;51.750;5.888;2022-12-29T01:09:22;0.95;;;0.40;;
32319;SDS011;19080;51.750;5.888;2022-12-29T01:12:08;2.47;;;0.60;;
32319;SDS011;19080;51.750;5.888;2022-12-29T01:14:36;1.92;;;0.60;;
32319;SDS011;19080;51.750;5.888;2022-12-29T01:17:03;2.35;;;1.23;;
32319;SDS011;19080;51.750;5.888;2022-12-29T01:19:31;0.80;;;0.65;;
32319;SDS011;19080;51.750;5.888;2022-12-29T01:21:59;1.35;;;0.80;;
32319;SDS011;19080;51.750;5.888;2022-12-29T01:24:27;1.00;;;0.85;;
32319;SDS011;19080;51.750;5.888;2022-12-29T01:26:53;1.77;;;0.82;;
32319;SDS011;19080;51.750;5.888;2022-12-29T01:29:21;2.17;;;1.33;;
32319;SDS011;19080;51.750;5.888;2022-12-29T01:31:48;2.47;;;1.40;;
32319;SDS011;19080;51.750;5.888;2022-12-29T01:34:16;2.70;;;1.40;;
32319;SDS011;19080;51.750;5.888;2022-12-29T01:36:43;1.48;;;1.38;;
32319;SDS011;19080;51.750;5.888;2022-12-29T01:39:11;2.85;;;1.77;;
32319;SDS011;19080;51.750;5.888;2022-12-29T01:41:38;2.17;;;1.70;;
32319;SDS011;19080;51.750;5.888;2022-12-29T01:47:08;1.70;;;1.60;;
32319;SDS011;19080;51.750;5.888;2022-12-29T01:49:36;2.78;;;1.80;;
32319;SDS011;19080;51.750;5.888;2022-12-29T01:52:04;2.45;;;1.30;;
32319;SDS011;19080;51.750;5.888;2022-12-29T01:54:38;2.45;;;1.55;;
32319;SDS011;19080;51.750;5.888;2022-12-29T01:57:11;3.17;;;1.48;;
32319;SDS011;19080;51.750;5.888;2022-12-29T01:59:46;3.03;;;1.17;;
32319;SDS011;19080;51.750;5.888;2022-12-29T02:02:23;2.45;;;1.23;;
32319;SDS011;19080;51.750;5.888;2022-12-29T02:05:05;1.98;;;1.20;;
32319;SDS011;19080;51.750;5.888;2022-12-29T02:07:37;1.35;;;1.02;;
32319;SDS011;19080;51.750;5.888;2022-12-29T02:10:05;2.85;;;1.00;;
32319;SDS011;19080;51.750;5.888;2022-12-29T02:12:32;1.48;;;0.70;;
32319;SDS011;19080;51.750;5.888;2022-12-29T02:15:00;1.75;;;0.93;;
32319;SDS011;19080;51.750;5.888;2022-12-29T02:20:37;3.03;;;1.17;;
32319;SDS011;19080;51.750;5.888;2022-12-29T02:23:49;1.25;;;0.80;;
32319;SDS011;19080;51.750;5.888;2022-12-29T02:38:25;1.25;;;0.60;;
32319;SDS011;19080;51.750;5.888;2022-12-29T02:41:04;0.65;;;0.60;;
32319;SDS011;19080;51.750;5.888;2022-12-29T02:43:42;4.15;;;1.10;;
32319;SDS011;19080;51.750;5.888;2022-12-29T02:48:59;1.45;;;0.60;;
32319;SDS011;19080;51.750;5.888;2022-12-29T02:51:35;1.65;;;0.90;;
32319;SDS011;19080;51.750;5.888;2022-12-29T02:54:44;1.20;;;0.60;;
32319;SDS011;19080;51.750;5.888;2022-12-29T03:09:21;1.98;;;0.77;;
32319;SDS011;19080;51.750;5.888;2022-12-29T03:15:50;2.05;;;0.68;;
32319;SDS011;19080;51.750;5.888;2022-12-29T03:18:33;2.40;;;0.60;;
32319;SDS011;19080;51.750;5.888;2022-12-29T03:21:02;2.05;;;0.75;;
32319;SDS011;19080;51.750;5.888;2022-12-29T03:23:34;3.13;;;0.88;;
32319;SDS011;19080;51.750;5.888;2022-12-29T03:26:07;2.92;;;0.80;;
32319;SDS011;19080;51.750;5.888;2022-12-29T03:28:39;0.85;;;0.70;;
32319;SDS011;19080;51.750;5.888;2022-12-29T03:31:16;1.52;;;0.60;;
32319;SDS011;19080;51.750;5.888;2022-12-29T03:33:47;2.05;;;0.68;;
32319;SDS011;19080;51.750;5.888;2022-12-29T03:36:21;4.35;;;1.00;;
32319;SDS011;19080;51.750;5.888;2022-12-29T03:39:01;1.75;;;0.60;;
32319;SDS011;19080;51.750;5.888;2022-12-29T03:41:32;2.42;;;0.80;;
32319;SDS011;19080;51.750;5.888;2022-12-29T03:44:02;1.70;;;0.75;;
32319;SDS011;19080;51.750;5.888;2022-12-29T03:46:28;3.38;;;0.95;;
32319;SDS011;19080;51.750;5.888;2022-12-29T03:48:55;2.75;;;0.77;;
32319;SDS011;19080;51.750;5.888;2022-12-29T03:51:22;2.55;;;1.23;;
32319;SDS011;19080;51.750;5.888;2022-12-29T03:53:50;1.42;;;0.60;;
32319;SDS011;19080;51.750;5.888;2022-12-29T03:56:16;0.90;;;0.50;;
32319;SDS011;19080;51.750;5.888;2022-12-29T03:58:43;3.08;;;0.50;;
32319;SDS011;19080;51.750;5.888;2022-12-29T04:01:15;1.35;;;0.68;;
32319;SDS011;19080;51.750;5.888;2022-12-29T04:03:44;1.17;;;0.63;;
32319;SDS011;19080;51.750;5.888;2022-12-29T04:06:11;2.08;;;0.73;;
32319;SDS011;19080;51.750;5.888;2022-12-29T04:08:44;2.63;;;1.00;;
32319;SDS011;19080;51.750;5.888;2022-12-29T04:11:11;2.20;;;0.80;;
32319;SDS011;19080;51.750;5.888;2022-12-29T04:13:38;2.65;;;0.70;;
32319;SDS011;19080;51.750;5.888;2022-12-29T04:16:09;2.50;;;0.82;;
32319;SDS011;19080;51.750;5.888;2022-12-29T04:18:36;2.20;;;0.70;;
32319;SDS011;19080;51.750;5.888;2022-12-29T04:21:03;3.65;;;0.80;;
32319;SDS011;19080;51.750;5.888;2022-12-29T04:23:34;1.98;;;0.50;;
32319;SDS011;19080;51.750;5.888;2022-12-29T04:26:05;1.63;;;0.50;;
32319;SDS011;19080;51.750;5.888;2022-12-29T04:28:38;3.15;;;0.98;;
32319;SDS011;19080;51.750;5.888;2022-12-29T04:31:23;4.00;;;0.98;;
32319;SDS011;19080;51.750;5.888;2022-12-29T04:33:50;4.78;;;0.95;;
32319;SDS011;19080;51.750;5.888;2022-12-29T04:36:18;4.03;;;0.77;;
32319;SDS011;19080;51.750;5.888;2022-12-29T04:38:44;3.63;;;0.75;;
32319;SDS011;19080;51.750;5.888;2022-12-29T04:41:12;4.32;;;1.00;;
32319;SDS011;19080;51.750;5.888;2022-12-29T04:43:38;2.38;;;0.70;;
32319;SDS011;19080;51.750;5.888;2022-12-29T04:46:14;3.40;;;0.73;;
32319;SDS011;19080;51.750;5.888;2022-12-29T04:49:10;2.45;;;1.15;;
32319;SDS011;19080;51.750;5.888;2022-12-29T04:51:54;3.67;;;0.80;;
32319;SDS011;19080;51.750;5.888;2022-12-29T04:54:21;3.88;;;0.80;;
32319;SDS011;19080;51.750;5.888;2022-12-29T04:56:55;3.00;;;0.85;;
32319;SDS011;19080;51.750;5.888;2022-12-29T04:59:23;4.70;;;1.00;;
32319;SDS011;19080;51.750;5.888;2022-12-29T05:01:53;3.45;;;1.17;;
32319;SDS011;19080;51.750;5.888;2022-12-29T05:04:21;2.42;;;0.68;;
32319;SDS011;19080;51.750;5.888;2022-12-29T05:06:47;7.90;;;1.73;;
32319;SDS011;19080;51.750;5.888;2022-12-29T05:09:15;5.95;;;1.50;;
32319;SDS011;19080;51.750;5.888;2022-12-29T05:11:44;3.95;;;1.30;;
32319;SDS011;19080;51.750;5.888;2022-12-29T05:14:10;6.50;;;1.17;;
32319;SDS011;19080;51.750;5.888;2022-12-29T05:16:37;5.55;;;1.00;;
32319;SDS011;19080;51.750;5.888;2022-12-29T05:19:04;5.70;;;1.33;;
32319;SDS011;19080;51.750;5.888;2022-12-29T05:21:31;5.45;;;1.00;;
32319;SDS011;19080;51.750;5.888;2022-12-29T05:23:58;6.03;;;1.35;;
32319;SDS011;19080;51.750;5.888;2022-12-29T05:26:26;7.47;;;0.98;;
32319;SDS011;19080;51.750;5.888;2022-12-29T05:29:16;5.53;;;1.35;;
32319;SDS011;19080;51.750;5.888;2022-12-29T05:31:44;5.50;;;1.17;;
32319;SDS011;19080;51.750;5.888;2022-12-29T05:34:11;8.23;;;1.17;;
32319;SDS011;19080;51.750;5.888;2022-12-29T05:36:39;7.40;;;1.42;;
32319;SDS011;19080;51.750;5.888;2022-12-29T05:39:08;6.20;;;1.60;;
32319;SDS011;19080;51.750;5.888;2022-12-29T05:41:35;5.82;;;1.20;;
32319;SDS011;19080;51.750;5.888;2022-12-29T05:44:14;6.72;;;1.20;;
32319;SDS011;19080;51.750;5.888;2022-12-29T05:47:12;7.38;;;1.10;;
32319;SDS011;19080;51.750;5.888;2022-12-29T05:50:00;5.32;;;1.20;;
32319;SDS011;19080;51.750;5.888;2022-12-29T05:52:53;5.47;;;1.00;;
32319;SDS011;19080;51.750;5.888;2022-12-29T05:55:20;7.82;;;1.25;;
32319;SDS011;19080;51.750;5.888;2022-12-29T05:57:49;4.47;;;1.20;;
32319;SDS011;19080;51.750;5.888;2022-12-29T06:00:16;5.75;;;1.17;;
32319;SDS011;19080;51.750;5.888;2022-12-29T06:02:45;4.70;;;1.10;;
32319;SDS011;19080;51.750;5.888;2022-12-29T06:05:14;5.68;;;1.33;;
32319;SDS011;19080;51.750;5.888;2022-12-29T06:07:40;5.57;;;1.30;;
32319;SDS011;19080;51.750;5.888;2022-12-29T06:10:07;6.97;;;1.30;;
32319;SDS011;19080;51.750;5.888;2022-12-29T06:12:42;5.07;;;1.20;;
32319;SDS011;19080;51.750;5.888;2022-12-29T06:15:09;5.80;;;1.70;;
32319;SDS011;19080;51.750;5.888;2022-12-29T06:17:38;4.05;;;0.98;;
32319;SDS011;19080;51.750;5.888;2022-12-29T06:20:05;6.00;;;1.10;;
32319;SDS011;19080;51.750;5.888;2022-12-29T06:22:33;9.75;;;1.58;;
32319;SDS011;19080;51.750;5.888;2022-12-29T06:25:00;4.88;;;1.17;;
32319;SDS011;19080;51.750;5.888;2022-12-29T06:27:32;4.95;;;1.52;;
32319;SDS011;19080;51.750;5.888;2022-12-29T06:29:59;4.53;;;0.77;;
32319;SDS011;19080;51.750;5.888;2022-12-29T06:32:26;6.85;;;1.08;;
32319;SDS011;19080;51.750;5.888;2022-12-29T06:34:58;5.30;;;1.00;;
32319;SDS011;19080;51.750;5.888;2022-12-29T06:37:28;4.40;;;1.13;;
32319;SDS011;19080;51.750;5.888;2022-12-29T06:39:58;3.55;;;1.30;;
32319;SDS011;19080;51.750;5.888;2022-12-29T06:42:32;6.88;;;1.10;;
32319;SDS011;19080;51.750;5.888;2022-12-29T06:45:20;3.65;;;0.93;;
32319;SDS011;19080;51.750;5.888;2022-12-29T06:47:47;5.45;;;1.23;;
32319;SDS011;19080;51.750;5.888;2022-12-29T06:50:13;4.22;;;0.85;;
32319;SDS011;19080;51.750;5.888;2022-12-29T06:52:40;4.72;;;0.75;;
32319;SDS011;19080;51.750;5.888;2022-12-29T06:55:07;4.45;;;1.50;;
32319;SDS011;19080;51.750;5.888;2022-12-29T06:57:34;6.93;;;1.08;;
32319;SDS011;19080;51.750;5.888;2022-12-29T07:00:00;7.90;;;1.77;;
32319;SDS011;19080;51.750;5.888;2022-12-29T07:02:41;3.53;;;0.70;;
32319;SDS011;19080;51.750;5.888;2022-12-29T07:05:08;6.72;;;1.05;;
32319;SDS011;19080;51.750;5.888;2022-12-29T07:07:36;6.15;;;1.00;;
32319;SDS011;19080;51.750;5.888;2022-12-29T07:10:03;5.35;;;1.15;;
32319;SDS011;19080;51.750;5.888;2022-12-29T07:12:30;6.30;;;1.45;;
32319;SDS011;19080;51.750;5.888;2022-12-29T07:14:56;6.22;;;1.10;;
32319;SDS011;19080;51.750;5.888;2022-12-29T07:17:23;6.90;;;1.45;;
32319;SDS011;19080;51.750;5.888;2022-12-29T07:19:49;4.90;;;1.30;;
32319;SDS011;19080;51.750;5.888;2022-12-29T07:22:16;6.88;;;1.20;;
32319;SDS011;19080;51.750;5.888;2022-12-29T07:24:42;6.95;;;1.38;;
32319;SDS011;19080;51.750;5.888;2022-12-29T07:27:10;5.30;;;1.10;;
32319;SDS011;19080;51.750;5.888;2022-12-29T07:29:37;5.57;;;1.30;;
32319;SDS011;19080;51.750;5.888;2022-12-29T07:32:04;5.45;;;1.50;;
32319;SDS011;19080;51.750;5.888;2022-12-29T07:34:31;4.07;;;1.20;;
32319;SDS011;19080;51.750;5.888;2022-12-29T07:36:58;5.75;;;1.50;;
32319;SDS011;19080;51.750;5.888;2022-12-29T07:39:24;4.70;;;1.40;;
32319;SDS011;19080;51.750;5.888;2022-12-29T07:41:51;6.88;;;1.73;;
32319;SDS011;19080;51.750;5.888;2022-12-29T07:44:19;8.88;;;1.35;;
32319;SDS011;19080;51.750;5.888;2022-12-29T07:46:52;6.05;;;1.25;;
32319;SDS011;19080;51.750;5.888;2022-12-29T07:49:22;6.18;;;1.27;;
32319;SDS011;19080;51.750;5.888;2022-12-29T07:51:49;12.45;;;1.95;;
32319;SDS011;19080;51.750;5.888;2022-12-29T07:54:15;8.82;;;1.63;;
32319;SDS011;19080;51.750;5.888;2022-12-29T07:56:45;6.22;;;1.48;;
32319;SDS011;19080;51.750;5.888;2022-12-29T07:59:12;8.50;;;1.80;;
32319;SDS011;19080;51.750;5.888;2022-12-29T08:01:38;9.23;;;1.73;;
32319;SDS011;19080;51.750;5.888;2022-12-29T08:04:05;6.45;;;1.48;;
32319;SDS011;19080;51.750;5.888;2022-12-29T08:06:32;7.28;;;1.90;;
32319;SDS011;19080;51.750;5.888;2022-12-29T08:08:59;9.63;;;1.42;;
32319;SDS011;19080;51.750;5.888;2022-12-29T08:11:38;10.55;;;1.95;;
32319;SDS011;19080;51.750;5.888;2022-12-29T08:14:06;8.90;;;1.48;;
32319;SDS011;19080;51.750;5.888;2022-12-29T08:16:33;5.88;;;1.67;;
32319;SDS011;19080;51.750;5.888;2022-12-29T08:18:59;9.10;;;1.25;;
32319;SDS011;19080;51.750;5.888;2022-12-29T08:21:29;9.82;;;1.90;;
32319;SDS011;19080;51.750;5.888;2022-12-29T08:23:56;8.75;;;1.50;;
32319;SDS011;19080;51.750;5.888;2022-12-29T08:26:23;8.35;;;1.77;;
32319;SDS011;19080;51.750;5.888;2022-12-29T08:28:51;8.68;;;2.10;;
32319;SDS011;19080;51.750;5.888;2022-12-29T08:31:19;14.35;;;1.90;;
32319;SDS011;19080;51.750;5.888;2022-12-29T08:33:46;8.40;;;2.03;;
32319;SDS011;19080;51.750;5.888;2022-12-29T08:36:12;16.88;;;2.20;;
32319;SDS011;19080;51.750;5.888;2022-12-29T08:38:39;4.00;;;1.65;;
32319;SDS011;19080;51.750;5.888;2022-12-29T08:41:06;7.55;;;1.60;;
32319;SDS011;19080;51.750;5.888;2022-12-29T08:43:33;5.75;;;1.65;;
32319;SDS011;19080;51.750;5.888;2022-12-29T08:45:59;9.48;;;1.77;;
32319;SDS011;19080;51.750;5.888;2022-12-29T08:48:26;6.13;;;1.77;;
32319;SDS011;19080;51.750;5.888;2022-12-29T08:50:53;13.02;;;1.90;;
32319;SDS011;19080;51.750;5.888;2022-12-29T08:53:20;12.60;;;2.63;;
32319;SDS011;19080;51.750;5.888;2022-12-29T08:55:47;6.53;;;1.58;;
32319;SDS011;19080;51.750;5.888;2022-12-29T08:58:27;9.80;;;1.90;;
32319;SDS011;19080;51.750;5.888;2022-12-29T09:00:55;8.43;;;1.45;;
32319;SDS011;19080;51.750;5.888;2022-12-29T09:03:23;11.60;;;1.90;;
32319;SDS011;19080;51.750;5.888;2022-12-29T09:06:11;13.20;;;1.80;;
32319;SDS011;19080;51.750;5.888;2022-12-29T09:08:37;12.55;;;2.22;;
32319;SDS011;19080;51.750;5.888;2022-12-29T09:11:12;9.82;;;2.00;;
32319;SDS011;19080;51.750;5.888;2022-12-29T09:13:45;8.27;;;1.92;;
32319;SDS011;19080;51.750;5.888;2022-12-29T09:16:12;14.40;;;2.70;;
32319;SDS011;19080;51.750;5.888;2022-12-29T09:18:39;7.95;;;1.85;;
32319;SDS011;19080;51.750;5.888;2022-12-29T09:21:06;10.88;;;1.90;;
32319;SDS011;19080;51.750;5.888;2022-12-29T09:23:33;9.70;;;1.90;;
32319;SDS011;19080;51.750;5.888;2022-12-29T09:26:01;10.20;;;1.67;;
32319;SDS011;19080;51.750;5.888;2022-12-29T09:28:32;8.32;;;1.58;;
32319;SDS011;19080;51.750;5.888;2022-12-29T09:30:59;8.27;;;1.65;;
32319;SDS011;19080;51.750;5.888;2022-12-29T09:33:26;9.27;;;2.28;;
32319;SDS011;19080;51.750;5.888;2022-12-29T09:35:56;8.60;;;1.95;;
32319;SDS011;19080;51.750;5.888;2022-12-29T09:38:24;8.40;;;1.65;;
32319;SDS011;19080;51.750;5.888;2022-12-29T09:41:05;10.50;;;2.03;;
32319;SDS011;19080;51.750;5.888;2022-12-29T09:43:46;6.88;;;1.90;;
32319;SDS011;19080;51.750;5.888;2022-12-29T09:46:28;14.90;;;2.50;;
32319;SDS011;19080;51.750;5.888;2022-12-29T09:51:46;10.77;;;1.75;;
32319;SDS011;19080;51.750;5.888;2022-12-29T09:57:18;12.30;;;2.42;;
32319;SDS011;19080;51.750;5.888;2022-12-29T09:59:50;9.60;;;1.77;;
32319;SDS011;19080;51.750;5.888;2022-12-29T10:04:59;11.90;;;1.60;;
32319;SDS011;19080;51.750;5.888;2022-12-29T10:07:40;9.75;;;1.95;;
32319;SDS011;19080;51.750;5.888;2022-12-29T10:18:34;7.65;;;1.50;;
32319;SDS011;19080;51.750;5.888;2022-12-29T10:21:22;8.20;;;1.90;;
32319;SDS011;19080;51.750;5.888;2022-12-29T10:24:06;8.23;;;2.50;;
32319;SDS011;19080;51.750;5.888;2022-12-29T10:26:38;8.48;;;1.75;;
32319;SDS011;19080;51.750;5.888;2022-12-29T10:29:16;7.28;;;1.88;;
32319;SDS011;19080;51.750;5.888;2022-12-29T10:31:50;11.20;;;1.77;;
32319;SDS011;19080;51.750;5.888;2022-12-29T10:34:37;3.80;;;1.10;;
32319;SDS011;19080;51.750;5.888;2022-12-29T10:37:14;14.88;;;2.38;;
32319;SDS011;19080;51.750;5.888;2022-12-29T10:39:59;8.85;;;1.50;;
32319;SDS011;19080;51.750;5.888;2022-12-29T10:42:43;12.60;;;2.10;;
32319;SDS011;19080;51.750;5.888;2022-12-29T10:45:14;12.10;;;1.60;;
32319;SDS011;19080;51.750;5.888;2022-12-29T10:48:02;10.43;;;1.80;;
32319;SDS011;19080;51.750;5.888;2022-12-29T10:50:35;12.13;;;1.92;;
32319;SDS011;19080;51.750;5.888;2022-12-29T10:53:09;10.52;;;1.90;;
32319;SDS011;19080;51.750;5.888;2022-12-29T10:55:45;10.27;;;1.50;;
32319;SDS011;19080;51.750;5.888;2022-12-29T10:58:13;11.02;;;2.50;;
32319;SDS011;19080;51.750;5.888;2022-12-29T11:00:41;13.43;;;2.22;;
32319;SDS011;19080;51.750;5.888;2022-12-29T11:06:02;8.73;;;1.60;;
32319;SDS011;19080;51.750;5.888;2022-12-29T11:08:36;7.70;;;1.73;;
32319;SDS011;19080;51.750;5.888;2022-12-29T11:11:06;12.57;;;2.13;;
32319;SDS011;19080;51.750;5.888;2022-12-29T11:13:50;9.07;;;2.67;;
32319;SDS011;19080;51.750;5.888;2022-12-29T11:16:30;9.45;;;2.08;;
32319;SDS011;19080;51.750;5.888;2022-12-29T11:18:59;4.90;;;1.35;;
32319;SDS011;19080;51.750;5.888;2022-12-29T11:23:55;8.18;;;1.90;;
32319;SDS011;19080;51.750;5.888;2022-12-29T11:26:24;9.43;;;2.20;;
32319;SDS011;19080;51.750;5.888;2022-12-29T11:29:21;7.82;;;2.55;;
32319;SDS011;19080;51.750;5.888;2022-12-29T11:31:54;7.30;;;2.00;;
32319;SDS011;19080;51.750;5.888;2022-12-29T11:42:17;7.93;;;2.30;;
32319;SDS011;19080;51.750;5.888;2022-12-29T11:44:46;9.70;;;3.33;;
32319;SDS011;19080;51.750;5.888;2022-12-29T11:47:28;8.05;;;1.85;;
32319;SDS011;19080;51.750;5.888;2022-12-29T11:49:58;9.75;;;1.67;;
32319;SDS011;19080;51.750;5.888;2022-12-29T11:52:29;9.73;;;2.20;;
32319;SDS011;19080;51.750;5.888;2022-12-29T11:54:59;11.82;;;2.90;;
32319;SDS011;19080;51.750;5.888;2022-12-29T11:57:27;8.80;;;1.92;;
32319;SDS011;19080;51.750;5.888;2022-12-29T11:59:55;7.90;;;2.20;;
32319;SDS011;19080;51.750;5.888;2022-12-29T12:02:26;8.05;;;2.13;;
32319;SDS011;19080;51.750;5.888;2022-12-29T12:07:50;9.93;;;1.92;;
32319;SDS011;19080;51.750;5.888;2022-12-29T12:10:42;11.02;;;2.05;;
32319;SDS011;19080;51.750;5.888;2022-12-29T12:13:20;11.15;;;2.75;;
32319;SDS011;19080;51.750;5.888;2022-12-29T12:15:57;9.43;;;2.28;;
32319;SDS011;19080;51.750;5.888;2022-12-29T12:18:32;11.40;;;2.30;;
32319;SDS011;19080;51.750;5.888;2022-12-29T12:21:05;9.95;;;2.88;;
32319;SDS011;19080;51.750;5.888;2022-12-29T12:27:01;7.88;;;2.10;;
32319;SDS011;19080;51.750;5.888;2022-12-29T12:34:55;10.50;;;1.75;;
32319;SDS011;19080;51.750;5.888;2022-12-29T12:37:46;8.27;;;1.90;;
32319;SDS011;19080;51.750;5.888;2022-12-29T12:56:55;10.55;;;2.08;;
32319;SDS011;19080;51.750;5.888;2022-12-29T13:02:20;8.80;;;2.60;;
32319;SDS011;19080;51.750;5.888;2022-12-29T13:10:49;12.02;;;2.30;;
32319;SDS011;19080;51.750;5.888;2022-12-29T13:16:17;11.02;;;2.85;;
32319;SDS011;19080;51.750;5.888;2022-12-29T13:18:59;7.82;;;1.98;;
32319;SDS011;19080;51.750;5.888;2022-12-29T13:21:51;8.65;;;2.25;;
32319;SDS011;19080;51.750;5.888;2022-12-29T13:24:47;13.13;;;3.33;;
32319;SDS011;19080;51.750;5.888;2022-12-29T13:30:20;9.57;;;2.20;;
32319;SDS011;19080;51.750;5.888;2022-12-29T13:33:02;9.50;;;1.70;;
32319;SDS011;19080;51.750;5.888;2022-12-29T13:35:38;12.98;;;2.17;;
32319;SDS011;19080;51.750;5.888;2022-12-29T13:38:19;11.50;;;2.45;;
32319;SDS011;19080;51.750;5.888;2022-12-29T13:40:51;13.40;;;2.10;;
32319;SDS011;19080;51.750;5.888;2022-12-29T13:43:22;8.60;;;2.50;;
32319;SDS011;19080;51.750;5.888;2022-12-29T13:45:55;9.20;;;2.30;;
32319;SDS011;19080;51.750;5.888;2022-12-29T13:48:30;7.82;;;2.28;;
32319;SDS011;19080;51.750;5.888;2022-12-29T13:51:03;10.15;;;1.88;;
32319;SDS011;19080;51.750;5.888;2022-12-29T13:57:39;9.70;;;2.05;;
32319;SDS011;19080;51.750;5.888;2022-12-29T14:03:04;9.45;;;1.52;;
32319;SDS011;19080;51.750;5.888;2022-12-29T14:06:12;8.18;;;1.90;;
32319;SDS011;19080;51.750;5.888;2022-12-29T14:08:43;9.70;;;1.63;;
32319;SDS011;19080;51.750;5.888;2022-12-29T14:11:10;7.97;;;2.25;;
32319;SDS011;19080;51.750;5.888;2022-12-29T14:13:41;11.00;;;1.70;;
32319;SDS011;19080;51.750;5.888;2022-12-29T14:16:29;9.32;;;1.73;;
32319;SDS011;19080;51.750;5.888;2022-12-29T14:19:04;7.07;;;1.88;;
32319;SDS011;19080;51.750;5.888;2022-12-29T14:21:37;12.35;;;2.20;;
32319;SDS011;19080;51.750;5.888;2022-12-29T14:24:26;7.57;;;1.88;;
32319;SDS011;19080;51.750;5.888;2022-12-29T14:26:58;11.95;;;2.20;;
32319;SDS011;19080;51.750;5.888;2022-12-29T14:31:52;10.60;;;2.65;;
32319;SDS011;19080;51.750;5.888;2022-12-29T14:39:27;6.43;;;1.80;;
32319;SDS011;19080;51.750;5.888;2022-12-29T14:44:47;9.30;;;1.90;;
32319;SDS011;19080;51.750;5.888;2022-12-29T14:47:42;8.77;;;2.63;;
32319;SDS011;19080;51.750;5.888;2022-12-29T15:00:55;9.00;;;2.10;;
32319;SDS011;19080;51.750;5.888;2022-12-29T15:03:32;11.27;;;2.53;;
32319;SDS011;19080;51.750;5.888;2022-12-29T15:06:13;7.13;;;1.92;;
32319;SDS011;19080;51.750;5.888;2022-12-29T15:08:50;11.52;;;2.20;;
32319;SDS011;19080;51.750;5.888;2022-12-29T15:11:24;11.38;;;2.45;;
32319;SDS011;19080;51.750;5.888;2022-12-29T15:14:28;16.17;;;3.40;;
32319;SDS011;19080;51.750;5.888;2022-12-29T15:17:10;13.00;;;3.03;;
32319;SDS011;19080;51.750;5.888;2022-12-29T15:19:49;13.65;;;3.10;;
32319;SDS011;19080;51.750;5.888;2022-12-29T15:22:16;8.05;;;2.65;;
32319;SDS011;19080;51.750;5.888;2022-12-29T15:24:43;11.88;;;3.08;;
32319;SDS011;19080;51.750;5.888;2022-12-29T15:27:13;11.27;;;2.88;;
32319;SDS011;19080;51.750;5.888;2022-12-29T15:29:42;10.60;;;2.47;;
32319;SDS011;19080;51.750;5.888;2022-12-29T15:34:47;13.07;;;2.40;;
32319;SDS011;19080;51.750;5.888;2022-12-29T15:37:17;9.95;;;2.03;;
32319;SDS011;19080;51.750;5.888;2022-12-29T15:39:48;13.02;;;2.78;;
32319;SDS011;19080;51.750;5.888;2022-12-29T15:42:40;11.75;;;2.42;;
32319;SDS011;19080;51.750;5.888;2022-12-29T15:45:11;11.07;;;2.83;;
32319;SDS011;19080;51.750;5.888;2022-12-29T15:47:40;10.35;;;2.28;;
32319;SDS011;19080;51.750;5.888;2022-12-29T15:50:15;9.00;;;2.15;;
32319;SDS011;19080;51.750;5.888;2022-12-29T15:52:54;9.60;;;1.98;;
32319;SDS011;19080;51.750;5.888;2022-12-29T15:55:24;10.68;;;2.78;;
32319;SDS011;19080;51.750;5.888;2022-12-29T15:57:57;12.40;;;2.72;;
32319;SDS011;19080;51.750;5.888;2022-12-29T16:00:29;10.85;;;2.08;;
32319;SDS011;19080;51.750;5.888;2022-12-29T16:02:59;9.45;;;1.95;;
32319;SDS011;19080;51.750;5.888;2022-12-29T16:05:31;11.65;;;2.85;;
32319;SDS011;19080;51.750;5.888;2022-12-29T16:10:36;8.80;;;2.03;;
32319;SDS011;19080;51.750;5.888;2022-12-29T16:13:16;4.75;;;1.33;;
32319;SDS011;19080;51.750;5.888;2022-12-29T16:15:51;5.40;;;1.30;;
32319;SDS011;19080;51.750;5.888;2022-12-29T16:18:23;4.03;;;2.28;;
32319;SDS011;19080;51.750;5.888;2022-12-29T16:20:53;7.38;;;3.05;;
32319;SDS011;19080;51.750;5.888;2022-12-29T16:23:28;6.45;;;1.92;;
32319;SDS011;19080;51.750;5.888;2022-12-29T16:25:56;6.22;;;2.40;;
32319;SDS011;19080;51.750;5.888;2022-12-29T16:28:38;3.08;;;1.25;;
32319;SDS011;19080;51.750;5.888;2022-12-29T16:31:24;6.47;;;2.20;;
32319;SDS011;19080;51.750;5.888;2022-12-29T16:33:58;4.60;;;1.33;;
32319;SDS011;19080;51.750;5.888;2022-12-29T16:36:40;6.68;;;3.72;;
32319;SDS011;19080;51.750;5.888;2022-12-29T16:41:48;6.70;;;2.78;;
32319;SDS011;19080;51.750;5.888;2022-12-29T16:44:28;4.47;;;2.00;;
32319;SDS011;19080;51.750;5.888;2022-12-29T16:46:57;6.80;;;1.85;;
32319;SDS011;19080;51.750;5.888;2022-12-29T16:49:26;5.43;;;1.70;;
32319;SDS011;19080;51.750;5.888;2022-12-29T16:51:54;8.05;;;2.47;;
32319;SDS011;19080;51.750;5.888;2022-12-29T16:54:25;5.63;;;2.00;;
32319;SDS011;19080;51.750;5.888;2022-12-29T16:57:03;4.47;;;1.80;;
32319;SDS011;19080;51.750;5.888;2022-12-29T16:59:31;6.65;;;2.22;;
32319;SDS011;19080;51.750;5.888;2022-12-29T17:04:34;12.30;;;2.28;;
32319;SDS011;19080;51.750;5.888;2022-12-29T17:07:01;6.68;;;2.55;;
32319;SDS011;19080;51.750;5.888;2022-12-29T17:09:28;4.18;;;1.80;;
32319;SDS011;19080;51.750;5.888;2022-12-29T17:11:56;8.57;;;2.13;;
32319;SDS011;19080;51.750;5.888;2022-12-29T17:14:45;10.37;;;2.50;;
32319;SDS011;19080;51.750;5.888;2022-12-29T17:20:37;5.18;;;1.65;;
32319;SDS011;19080;51.750;5.888;2022-12-29T17:23:05;7.40;;;2.13;;
32319;SDS011;19080;51.750;5.888;2022-12-29T17:25:47;6.10;;;1.55;;
32319;SDS011;19080;51.750;5.888;2022-12-29T17:28:24;8.25;;;2.30;;
32319;SDS011;19080;51.750;5.888;2022-12-29T17:30:53;5.43;;;1.85;;
32319;SDS011;19080;51.750;5.888;2022-12-29T17:33:28;9.82;;;2.47;;
32319;SDS011;19080;51.750;5.888;2022-12-29T17:36:00;10.25;;;2.15;;
32319;SDS011;19080;51.750;5.888;2022-12-29T17:38:28;6.65;;;1.85;;
32319;SDS011;19080;51.750;5.888;2022-12-29T17:40:56;5.82;;;1.75;;
32319;SDS011;19080;51.750;5.888;2022-12-29T17:43:23;8.18;;;2.83;;
32319;SDS011;19080;51.750;5.888;2022-12-29T17:45:53;11.63;;;2.90;;
32319;SDS011;19080;51.750;5.888;2022-12-29T17:48:22;8.45;;;2.20;;
32319;SDS011;19080;51.750;5.888;2022-12-29T17:50:50;8.20;;;2.10;;